Time;durP1;ratioP1;P1;durP2;ratioP2;P2;SDS_P1;SDS_P2;PMS_P1;PMS_P2;Temp;Humidity;BMP_temperature;BMP_pressure;BME280_temperature;BME280_humidity;BME280_pressure;Samples;Min_cycle;Max_cycle;Signal;HPM_P1;HPM_P2
2023/04/09 00:02:10;;;;;;;34.20;13.50;;;;;;;5.69;95.03;100868.61;108870;1259;66613;-67
2023/04/09 00:05:02;;;;;;;31.40;12.30;;;;;;;5.70;95.01;100865.73;108839;1259;71060;-65
2023/04/09 00:07:49;;;;;;;33.60;13.50;;;;;;;5.73;95.72;100863.52;108958;1259;58021;-64
2023/04/09 00:10:37;;;;;;;40.60;14.30;;;;;;;5.73;95.51;100858.74;108940;1259;61551;-65
2023/04/09 00:13:25;;;;;;;40.50;14.50;;;;;;;5.71;95.69;100860.95;108887;1261;72931;-65
2023/04/09 00:16:26;;;;;;;37.60;14.80;;;;;;;5.66;95.61;100862.77;108874;1261;66939;-66
2023/04/09 00:19:14;;;;;;;31.20;13.40;;;;;;;5.64;95.84;100864.11;108863;1262;73549;-66
2023/04/09 00:22:01;;;;;;;39.50;14.30;;;;;;;5.60;95.87;100861.61;108724;1262;59254;-64
2023/04/09 00:24:50;;;;;;;33.00;12.60;;;;;;;5.55;96.22;100862.89;108856;1261;60088;-67
2023/04/09 00:27:38;;;;;;;32.00;12.30;;;;;;;5.51;96.33;100856.36;108828;1262;71917;-64
2023/04/09 00:30:29;;;;;;;32.60;12.50;;;;;;;5.49;96.68;100857.70;108863;1261;68576;-63
2023/04/09 00:33:17;;;;;;;37.70;12.20;;;;;;;5.48;96.93;100857.75;108882;1262;71519;-64
2023/04/09 00:36:05;;;;;;;39.60;14.60;;;;;;;5.48;97.48;100856.84;108751;1261;59468;-65
2023/04/09 00:38:53;;;;;;;56.90;17.40;;;;;;;5.49;97.42;100854.72;108893;1265;60344;-64
2023/04/09 00:41:41;;;;;;;82.90;26.00;;;;;;;5.49;97.31;100854.00;108878;1262;72759;-63
2023/04/09 00:44:30;;;;;;;76.20;25.20;;;;;;;5.48;97.42;100847.73;108118;1259;1002360;-65
2023/04/09 00:47:18;;;;;;;77.70;25.50;;;;;;;5.47;97.16;100847.41;108973;1259;72739;-66
2023/04/09 00:50:08;;;;;;;78.90;27.10;;;;;;;5.46;97.47;100848.83;108957;1259;59417;-66
2023/04/09 00:52:56;;;;;;;68.00;24.70;;;;;;;5.47;97.20;100847.22;108940;1259;58956;-66
2023/04/09 00:55:44;;;;;;;54.60;21.80;;;;;;;5.46;97.07;100845.18;108910;1259;71480;-67
2023/04/09 00:58:32;;;;;;;58.80;24.80;;;;;;;5.48;97.86;100847.55;108882;1258;67647;-64
2023/04/09 01:01:20;;;;;;;33.20;12.80;;;;;;;5.52;97.83;100852.11;108851;1259;71428;-64
2023/04/09 01:04:08;;;;;;;38.50;12.30;;;;;;;5.54;97.63;100848.33;109040;1259;59596;-65
2023/04/09 01:07:08;;;;;;;39.00;12.20;;;;;;;5.57;97.00;100850.48;108871;1259;58992;-65
2023/04/09 01:10:07;;;;;;;30.90;11.60;;;;;;;5.55;96.40;100853.40;108952;1259;72971;-64
2023/04/09 01:13:13;;;;;;;40.00;12.50;;;;;;;5.52;96.38;100850.17;108931;1259;66610;-69
2023/04/09 01:16:02;;;;;;;37.40;12.70;;;;;;;5.50;96.03;100852.20;108932;1259;72204;-65
2023/04/09 01:19:07;;;;;;;37.30;12.30;;;;;;;5.47;96.19;100849.70;108828;1259;58619;-67
2023/04/09 01:21:56;;;;;;;37.40;11.70;;;;;;;5.44;95.88;100849.63;108865;1259;60168;-66
2023/04/09 01:25:28;;;;;;;38.40;12.10;;;;;;;5.42;95.83;100845.64;108838;1259;71443;-65
2023/04/09 01:28:40;;;;;;;37.80;12.80;;;;;;;5.46;96.01;100847.77;108812;1259;66554;-63
2023/04/09 01:31:37;;;;;;;36.40;12.30;;;;;;;5.50;95.31;100849.73;108884;1259;72098;-64
2023/04/09 01:34:27;;;;;;;36.90;12.20;;;;;;;5.50;95.09;100850.43;108932;1259;58022;-66
2023/04/09 01:37:16;;;;;;;37.80;13.00;;;;;;;5.48;94.81;100849.13;108958;1259;58858;-67
2023/04/09 01:40:08;;;;;;;38.00;12.00;;;;;;;5.47;95.05;100853.40;108843;1259;72849;-65
2023/04/09 01:42:57;;;;;;;33.10;12.80;;;;;;;5.44;94.92;100853.70;105902;1259;1003041;-66
2023/04/09 01:45:46;;;;;;;34.50;11.20;;;;;;;5.39;94.92;100850.75;108833;1259;72289;-65
2023/04/09 01:48:36;;;;;;;34.70;10.10;;;;;;;5.36;94.98;100854.02;108857;1260;57573;-65
2023/04/09 01:51:26;;;;;;;35.90;11.80;;;;;;;5.33;95.06;100854.70;108865;1263;60138;-66
2023/04/09 01:54:15;;;;;;;37.20;12.50;;;;;;;5.29;95.21;100855.23;108943;1258;73241;-67
2023/04/09 01:57:03;;;;;;;29.10;11.10;;;;;;;5.24;95.36;100855.98;108858;1259;66753;-67
2023/04/09 01:59:51;;;;;;;34.70;12.20;;;;;;;5.16;95.54;100860.88;108858;1259;72821;-65
2023/04/09 02:02:54;;;;;;;33.50;12.60;;;;;;;5.10;96.24;100860.61;108978;1264;58305;-66
2023/04/09 02:05:52;;;;;;;34.80;12.20;;;;;;;5.06;96.74;100860.42;108855;1259;60128;-65
2023/04/09 02:08:46;;;;;;;34.30;11.90;;;;;;;5.04;96.88;100858.55;108905;1259;74327;-64
2023/04/09 02:11:39;;;;;;;37.00;11.90;;;;;;;5.02;96.84;100856.71;108880;1259;66514;-67
2023/04/09 02:14:28;;;;;;;31.50;11.90;;;;;;;5.00;96.93;100857.32;108834;1259;73532;-66
2023/04/09 02:17:17;;;;;;;40.00;12.70;;;;;;;4.99;97.11;100857.88;108669;1262;58405;-66
2023/04/09 02:20:06;;;;;;;37.50;11.60;;;;;;;4.96;96.98;100856.45;108750;1263;58762;-63
2023/04/09 02:22:54;;;;;;;35.40;12.20;;;;;;;4.93;97.05;100855.15;108840;1262;72829;-64
2023/04/09 02:25:43;;;;;;;41.60;12.20;;;;;;;4.90;97.18;100858.27;108779;1262;66403;-65
2023/04/09 02:28:30;;;;;;;33.80;11.60;;;;;;;4.88;97.21;100855.02;108712;1262;72447;-64
2023/04/09 02:31:18;;;;;;;29.80;10.30;;;;;;;4.85;97.43;100854.80;108752;1262;58742;-64
2023/04/09 02:34:06;;;;;;;39.60;12.10;;;;;;;4.78;97.41;100854.38;108675;1262;58773;-67
2023/04/09 02:36:54;;;;;;;43.80;12.10;;;;;;;4.75;97.50;100855.70;108789;1262;71781;-68
2023/04/09 02:39:42;;;;;;;42.30;14.90;;;;;;;4.70;97.93;100856.60;108502;1262;223806;-70
2023/04/09 02:42:30;;;;;;;56.70;19.30;;;;;;;4.66;98.10;100856.08;108783;1263;71452;-69
2023/04/09 02:45:19;;;;;;;51.40;17.30;;;;;;;4.66;98.20;100857.67;108727;1262;57579;-67
2023/04/09 02:48:07;;;;;;;60.40;17.90;;;;;;;4.66;98.31;100854.85;108893;1260;59691;-67
2023/04/09 02:50:56;;;;;;;54.20;15.90;;;;;;;4.67;98.05;100853.41;108873;1259;73068;-68
2023/04/09 02:53:44;;;;;;;58.60;17.10;;;;;;;4.69;98.56;100854.91;108860;1259;67926;-68
2023/04/09 02:56:32;;;;;;;48.70;14.10;;;;;;;4.72;98.41;100854.76;108787;1259;72564;-65
2023/04/09 02:59:20;;;;;;;60.70;16.20;;;;;;;4.71;98.09;100855.87;109060;1260;59309;-66
2023/04/09 03:02:07;;;;;;;55.20;16.60;;;;;;;4.73;98.31;100853.65;108850;1259;60184;-65
2023/04/09 03:04:55;;;;;;;54.00;16.70;;;;;;;4.77;98.15;100854.02;109071;1259;71774;-65
2023/04/09 03:07:46;;;;;;;49.60;15.50;;;;;;;4.82;98.17;100848.92;108926;1259;67772;-64
2023/04/09 03:10:34;;;;;;;50.00;14.90;;;;;;;4.84;98.16;100847.59;108914;1259;72708;-65
2023/04/09 03:13:22;;;;;;;45.10;14.40;;;;;;;4.89;97.60;100851.44;108882;1261;58166;-65
2023/04/09 03:16:09;;;;;;;45.20;13.60;;;;;;;4.91;97.44;100847.85;108820;1260;59466;-65
2023/04/09 03:18:59;;;;;;;43.70;13.60;;;;;;;4.91;97.16;100847.50;109094;1260;73184;-65
2023/04/09 03:21:48;;;;;;;44.90;14.20;;;;;;;4.91;97.26;100848.19;108972;1259;66421;-66
2023/04/09 03:24:36;;;;;;;52.40;15.30;;;;;;;4.90;96.98;100845.23;108956;1259;71194;-67
2023/04/09 03:27:25;;;;;;;47.80;16.00;;;;;;;4.90;97.06;100844.21;108761;1261;58920;-64
2023/04/09 03:30:14;;;;;;;48.00;17.80;;;;;;;4.88;96.72;100844.26;108809;1259;60220;-68
2023/04/09 03:33:04;;;;;;;49.30;17.40;;;;;;;4.89;97.10;100844.05;108891;1260;73806;-67
2023/04/09 03:35:55;;;;;;;51.10;15.40;;;;;;;4.92;97.08;100842.69;108873;1259;66790;-67
2023/04/09 03:38:52;;;;;;;42.40;15.60;;;;;;;4.95;96.79;100844.35;108882;1260;71529;-65
2023/04/09 03:42:01;;;;;;;37.20;12.10;;;;;;;4.98;96.41;100843.52;108939;1259;59728;-67
2023/04/09 03:44:55;;;;;;;38.00;12.30;;;;;;;5.00;95.98;100849.05;108915;1263;60440;-65
2023/04/09 03:47:52;;;;;;;34.30;11.60;;;;;;;5.02;95.60;100848.63;108874;1259;72668;-69
2023/04/09 03:50:43;;;;;;;31.60;11.00;;;;;;;5.02;95.46;100847.39;108938;1259;67628;-65
2023/04/09 03:53:32;;;;;;;30.80;11.20;;;;;;;5.02;94.99;100847.37;108901;1259;72746;-66
2023/04/09 03:56:23;;;;;;;27.60;10.20;;;;;;;5.00;94.88;100847.45;108837;1260;57370;-67
2023/04/09 03:59:10;;;;;;;23.90;9.20;;;;;;;5.00;94.55;100846.23;108996;1259;60449;-67
2023/04/09 04:02:01;;;;;;;21.90;9.00;;;;;;;4.99;94.25;100850.85;109004;1259;72727;-67
2023/04/09 04:04:50;;;;;;;25.30;9.60;;;;;;;5.00;94.52;100850.80;109031;1260;68583;-67
2023/04/09 04:07:38;;;;;;;25.40;10.40;;;;;;;5.04;94.51;100855.92;108951;1259;70204;-67
2023/04/09 04:10:32;;;;;;;27.70;10.40;;;;;;;5.09;94.43;100854.32;109001;1260;59295;-66
2023/04/09 04:13:21;;;;;;;26.80;9.30;;;;;;;5.10;93.67;100859.02;108953;1259;60462;-63
2023/04/09 04:16:14;;;;;;;22.10;8.90;;;;;;;5.11;93.53;100855.98;108915;1260;74188;-65
2023/04/09 04:19:02;;;;;;;24.80;10.00;;;;;;;5.12;93.45;100858.57;109010;1259;67955;-65
2023/04/09 04:21:51;;;;;;;20.20;8.30;;;;;;;5.14;93.47;100862.71;108975;1260;71414;-63
2023/04/09 04:24:39;;;;;;;24.60;9.30;;;;;;;5.16;93.00;100861.59;108976;1264;57969;-66
2023/04/09 04:27:27;;;;;;;18.20;7.90;;;;;;;5.15;92.49;100862.50;108897;1260;58798;-69
2023/04/09 04:30:14;;;;;;;22.10;8.30;;;;;;;5.13;92.23;100860.13;108949;1260;71696;-66
2023/04/09 04:33:14;;;;;;;23.20;8.70;;;;;;;5.12;92.52;100857.71;108910;1261;68070;-63
2023/04/09 04:36:16;;;;;;;22.30;9.40;;;;;;;5.13;92.58;100856.98;108829;1260;72395;-67
2023/04/09 04:39:10;;;;;;;22.50;9.30;;;;;;;5.14;91.74;100855.86;108929;1261;60333;-66
2023/04/09 04:42:17;;;;;;;19.90;8.70;;;;;;;5.14;91.88;100859.38;108903;1260;58774;-69
2023/04/09 04:45:07;;;;;;;20.40;8.70;;;;;;;5.13;90.80;100857.99;108742;1260;72803;-69
2023/04/09 04:48:00;;;;;;;17.10;8.10;;;;;;;5.14;90.66;100859.58;108955;1260;68065;-66
2023/04/09 04:51:00;;;;;;;17.50;8.20;;;;;;;5.13;90.40;100863.27;108954;1260;71419;-68
2023/04/09 04:53:55;;;;;;;17.60;8.40;;;;;;;5.16;90.49;100866.67;108663;1260;58344;-73
2023/04/09 04:56:43;;;;;;;21.50;8.00;;;;;;;5.19;89.96;100866.73;108856;1260;60107;-74
2023/04/09 04:59:50;;;;;;;17.30;7.40;;;;;;;5.17;88.06;100866.98;108069;1260;1002389;-79
2023/04/09 05:02:40;;;;;;;17.10;8.10;;;;;;;5.16;88.40;100866.88;108788;1260;66982;-77
2023/04/09 05:05:51;;;;;;;18.60;8.20;;;;;;;5.17;88.17;100872.97;108877;1260;71124;-78
2023/04/09 05:08:42;;;;;;;15.60;7.20;;;;;;;5.13;87.63;100876.85;108768;1260;57347;-77
2023/04/09 05:11:30;;;;;;;20.20;8.60;;;;;;;5.08;87.59;100873.16;108802;1260;58753;-73
2023/04/09 05:14:20;;;;;;;20.80;8.40;;;;;;;5.02;87.51;100872.39;108816;1260;71530;-72
2023/04/09 05:17:09;;;;;;;19.80;9.00;;;;;;;4.97;87.88;100873.11;108817;1260;66754;-72
2023/04/09 05:20:05;;;;;;;16.20;8.00;;;;;;;4.96;87.90;100874.38;108764;1261;71230;-75
2023/04/09 05:23:02;;;;;;;17.10;9.10;;;;;;;4.90;87.81;100873.38;108654;1264;57545;-70
2023/04/09 05:25:54;;;;;;;19.70;8.50;;;;;;;4.85;87.79;100871.30;108785;1262;59236;-70
2023/04/09 05:28:48;;;;;;;17.20;7.20;;;;;;;4.83;88.05;100873.33;107281;1263;1014863;-71
2023/04/09 05:31:39;;;;;;;17.20;8.10;;;;;;;4.84;88.09;100874.18;108798;1263;67695;-70
2023/04/09 05:34:31;;;;;;;16.20;7.80;;;;;;;4.89;88.32;100873.95;108598;1262;71326;-68
2023/04/09 05:37:21;;;;;;;15.10;6.80;;;;;;;4.96;88.05;100871.55;108712;1262;57378;-68
2023/04/09 05:40:13;;;;;;;14.90;7.30;;;;;;;5.01;87.51;100872.75;108707;1262;58744;-68
2023/04/09 05:43:03;;;;;;;17.00;7.60;;;;;;;5.06;87.44;100873.10;108764;1262;74331;-68
2023/04/09 05:46:03;;;;;;;13.80;6.50;;;;;;;5.11;87.55;100870.91;108735;1263;66195;-73
2023/04/09 05:48:51;;;;;;;16.80;6.90;;;;;;;5.14;87.00;100869.74;108758;1263;72544;-72
2023/04/09 05:51:42;;;;;;;12.40;6.30;;;;;;;5.15;86.72;100866.19;108815;1262;58837;-71
2023/04/09 05:54:30;;;;;;;13.00;5.80;;;;;;;5.16;86.85;100864.92;108786;1262;60075;-69
2023/04/09 05:57:18;;;;;;;14.20;6.80;;;;;;;5.26;86.31;100862.21;108633;1262;73061;-68
2023/04/09 06:00:14;;;;;;;11.90;5.40;;;;;;;5.32;85.67;100862.11;108881;1260;67660;-71
2023/04/09 06:03:07;;;;;;;15.10;6.70;;;;;;;5.38;85.32;100857.10;108840;1261;71175;-68
2023/04/09 06:05:57;;;;;;;12.50;5.20;;;;;;;5.43;84.96;100857.77;108812;1260;58926;-71
2023/04/09 06:08:47;;;;;;;12.90;6.10;;;;;;;5.51;84.69;100856.39;108932;1260;60620;-70
2023/04/09 06:11:41;;;;;;;12.70;5.40;;;;;;;5.63;84.53;100857.29;108859;1260;73124;-69
2023/04/09 06:14:31;;;;;;;13.10;5.40;;;;;;;5.76;83.73;100860.22;108682;1262;66927;-67
2023/04/09 06:17:19;;;;;;;13.10;5.80;;;;;;;5.90;83.38;100852.01;108738;1262;73007;-65
2023/04/09 06:20:08;;;;;;;14.10;5.50;;;;;;;6.14;82.49;100857.63;108723;1264;58521;-68
2023/04/09 06:22:56;;;;;;;15.00;5.90;;;;;;;6.47;81.73;100858.70;108607;1264;61561;-67
2023/04/09 06:25:44;;;;;;;13.50;5.50;;;;;;;7.42;79.62;100853.05;108563;1264;73942;-70
2023/04/09 06:28:35;;;;;;;12.60;5.80;;;;;;;9.21;75.49;100848.67;108607;1265;66581;-70
2023/04/09 06:31:23;;;;;;;14.70;5.60;;;;;;;11.03;67.61;100841.34;108598;1265;71417;-68
2023/04/09 06:34:11;;;;;;;12.30;5.10;;;;;;;12.72;62.03;100839.95;108415;1265;57745;-72
2023/04/09 06:36:58;;;;;;;10.00;4.10;;;;;;;14.23;56.15;100835.84;108546;1265;60607;-68
2023/04/09 06:39:46;;;;;;;9.70;3.80;;;;;;;15.60;51.90;100831.13;108601;1265;71514;-70
2023/04/09 06:42:40;;;;;;;11.00;4.00;;;;;;;16.95;47.31;100830.05;108578;1265;67901;-69
2023/04/09 06:45:37;;;;;;;10.70;3.60;;;;;;;18.03;44.33;100829.05;108490;1263;72539;-68
2023/04/09 06:48:27;;;;;;;11.30;3.60;;;;;;;19.04;41.12;100834.23;108661;1263;58023;-70
2023/04/09 06:51:15;;;;;;;9.40;3.80;;;;;;;19.85;38.74;100832.27;108633;1263;57818;-72
2023/04/09 06:54:03;;;;;;;8.10;3.30;;;;;;;20.75;38.22;100835.64;108860;1260;73980;-68
2023/04/09 06:56:51;;;;;;;9.60;3.60;;;;;;;21.30;35.72;100838.83;108885;1260;67875;-67
2023/04/09 06:59:42;;;;;;;10.50;3.50;;;;;;;20.62;35.28;100839.17;108930;1260;72458;-70
2023/04/09 07:02:30;;;;;;;9.60;3.60;;;;;;;19.49;36.34;100845.84;108864;1260;57880;-71
2023/04/09 07:05:21;;;;;;;9.20;3.60;;;;;;;18.48;38.14;100846.58;108937;1260;59550;-69
2023/04/09 07:08:12;;;;;;;9.10;3.50;;;;;;;17.65;39.66;100852.22;108902;1260;73130;-70
2023/04/09 07:10:59;;;;;;;8.90;3.40;;;;;;;17.01;41.10;100855.08;108934;1260;67683;-73
2023/04/09 07:13:47;;;;;;;11.60;3.80;;;;;;;16.57;41.97;100856.05;108964;1260;71071;-70
2023/04/09 07:16:36;;;;;;;9.80;3.40;;;;;;;16.30;42.64;100856.27;108885;1260;57290;-70
2023/04/09 07:19:25;;;;;;;10.80;3.50;;;;;;;16.04;43.30;100857.33;108995;1260;58684;-70
2023/04/09 07:22:13;;;;;;;8.20;3.30;;;;;;;15.76;43.53;100855.49;108827;1260;72884;-70
2023/04/09 07:25:01;;;;;;;9.80;3.50;;;;;;;15.51;44.05;100861.00;109009;1260;66346;-67
2023/04/09 07:27:49;;;;;;;8.70;3.30;;;;;;;15.50;44.40;100859.83;108974;1259;71722;-69
2023/04/09 07:30:40;;;;;;;10.30;3.60;;;;;;;15.47;44.80;100866.17;108785;1259;57690;-67
2023/04/09 07:33:30;;;;;;;8.70;3.60;;;;;;;15.29;44.45;100861.15;108859;1259;61269;-70
2023/04/09 07:36:18;;;;;;;10.20;3.30;;;;;;;15.13;45.21;100861.73;108912;1259;73028;-67
2023/04/09 07:39:06;;;;;;;9.50;2.80;;;;;;;15.00;45.16;100865.48;108890;1259;67934;-68
2023/04/09 07:41:56;;;;;;;9.70;3.10;;;;;;;14.89;45.33;100865.16;108954;1259;72664;-69
2023/04/09 07:44:44;;;;;;;8.70;3.40;;;;;;;14.83;45.59;100866.23;108935;1259;57403;-68
2023/04/09 07:47:33;;;;;;;9.90;3.40;;;;;;;14.78;45.56;100866.27;108985;1259;58701;-70
2023/04/09 07:50:22;;;;;;;10.80;3.40;;;;;;;14.76;45.70;100867.88;108709;1264;74283;-69
2023/04/09 07:53:13;;;;;;;10.30;3.90;;;;;;;14.90;45.82;100871.73;108614;1263;67758;-70
2023/04/09 07:56:01;;;;;;;9.70;3.70;;;;;;;15.03;45.25;100874.58;108717;1263;72542;-72
2023/04/09 07:58:50;;;;;;;8.70;3.30;;;;;;;15.16;45.10;100871.71;108739;1263;58070;-68
2023/04/09 08:01:38;;;;;;;12.60;3.60;;;;;;;15.27;44.66;100872.32;108724;1263;60086;-70
2023/04/09 08:04:27;;;;;;;9.90;3.10;;;;;;;15.41;44.56;100871.88;108693;1264;73116;-73
2023/04/09 08:07:14;;;;;;;9.90;3.30;;;;;;;15.69;44.74;100868.55;108709;1263;66547;-71
2023/04/09 08:10:05;;;;;;;8.80;3.20;;;;;;;16.02;44.33;100870.83;108565;1266;72794;-72
2023/04/09 08:12:53;;;;;;;10.00;3.40;;;;;;;16.34;43.87;100867.39;108535;1266;57829;-70
2023/04/09 08:15:42;;;;;;;13.40;3.70;;;;;;;16.67;43.02;100873.30;108503;1266;59075;-71
2023/04/09 08:18:30;;;;;;;10.20;3.50;;;;;;;16.94;42.38;100874.21;108452;1265;73071;-68
2023/04/09 08:21:18;;;;;;;9.50;3.60;;;;;;;17.16;41.70;100875.75;108737;1262;67650;-70
2023/04/09 08:24:06;;;;;;;8.50;3.40;;;;;;;17.22;41.33;100874.68;108785;1262;71613;-70
2023/04/09 08:26:55;;;;;;;10.20;3.70;;;;;;;17.41;41.17;100879.45;108549;1262;58189;-71
2023/04/09 08:29:44;;;;;;;9.40;3.70;;;;;;;17.46;41.11;100881.23;108653;1262;60254;-68
2023/04/09 08:32:34;;;;;;;10.40;3.50;;;;;;;17.70;40.72;100884.27;108732;1262;73296;-71
2023/04/09 08:35:22;;;;;;;9.00;3.40;;;;;;;18.08;40.15;100882.03;108860;1262;67931;-72
2023/04/09 08:38:10;;;;;;;10.50;3.70;;;;;;;18.12;39.58;100873.56;108794;1262;72374;-70
2023/04/09 08:40:58;;;;;;;10.40;3.80;;;;;;;18.13;39.52;100877.95;108783;1259;58473;-71
2023/04/09 08:43:47;;;;;;;9.90;3.60;;;;;;;18.27;39.10;100871.77;109051;1259;58956;-71
2023/04/09 08:46:46;;;;;;;8.40;3.50;;;;;;;18.39;38.78;100871.16;108780;1259;73811;-70
2023/04/09 08:49:34;;;;;;;10.00;3.40;;;;;;;18.37;39.08;100874.43;108873;1259;67935;-71
2023/04/09 08:52:33;;;;;;;9.90;3.50;;;;;;;18.58;38.37;100874.80;108949;1259;70813;-70
2023/04/09 08:55:21;;;;;;;9.00;3.10;;;;;;;18.86;37.98;100876.28;108850;1259;57317;-70
2023/04/09 08:58:11;;;;;;;9.50;3.60;;;;;;;18.95;37.77;100873.72;108974;1259;58820;-70
2023/04/09 09:01:00;;;;;;;10.20;3.90;;;;;;;19.31;37.51;100872.77;109032;1259;74280;-72
2023/04/09 09:04:02;;;;;;;10.40;3.40;;;;;;;20.15;35.99;100876.98;108950;1259;68061;-72
2023/04/09 09:06:53;;;;;;;9.20;3.80;;;;;;;20.30;35.11;100876.88;108954;1259;71425;-69
2023/04/09 09:09:58;;;;;;;9.90;3.90;;;;;;;20.09;34.47;100881.55;108876;1259;57301;-67
2023/04/09 09:12:46;;;;;;;7.90;3.40;;;;;;;20.10;34.51;100879.86;108920;1259;59128;-69
2023/04/09 09:15:35;;;;;;;9.40;3.50;;;;;;;20.04;34.70;100879.67;108970;1259;73097;-70
2023/04/09 09:18:41;;;;;;;8.60;3.50;;;;;;;20.03;34.57;100878.05;109001;1259;67499;-68
2023/04/09 09:21:32;;;;;;;9.30;3.50;;;;;;;20.06;34.49;100879.52;108922;1259;73841;-70
2023/04/09 09:24:22;;;;;;;9.10;3.40;;;;;;;20.27;34.29;100882.77;108841;1259;57357;-70
2023/04/09 09:27:11;;;;;;;10.30;3.70;;;;;;;20.41;33.98;100884.48;108910;1259;61119;-70
2023/04/09 09:30:00;;;;;;;10.20;3.70;;;;;;;20.54;34.07;100889.45;108723;1262;73245;-72
2023/04/09 09:33:11;;;;;;;11.20;4.20;;;;;;;20.63;33.37;100885.02;108816;1262;66414;-70
2023/04/09 09:36:02;;;;;;;9.40;3.40;;;;;;;20.88;33.03;100888.02;108820;1262;71417;-71
2023/04/09 09:38:56;;;;;;;10.80;3.50;;;;;;;21.56;31.45;100885.54;108767;1262;57766;-70
2023/04/09 09:41:47;;;;;;;12.10;6.00;;;;;;;22.52;30.07;100877.71;108804;1262;60273;-69
2023/04/09 09:44:35;;;;;;;10.00;3.60;;;;;;;23.06;29.21;100878.40;108818;1262;71762;-69
2023/04/09 09:47:26;;;;;;;10.90;3.60;;;;;;;23.55;28.32;100880.64;108782;1262;69239;-69
2023/04/09 09:50:14;;;;;;;9.10;2.90;;;;;;;23.69;27.56;100877.80;108738;1262;72407;-71
2023/04/09 09:53:07;;;;;;;7.80;2.80;;;;;;;23.75;27.21;100873.46;108761;1262;58603;-69
2023/04/09 09:55:59;;;;;;;8.30;2.80;;;;;;;23.57;26.93;100874.02;108775;1262;60561;-70
2023/04/09 09:59:06;;;;;;;8.90;3.10;;;;;;;23.39;27.42;100871.73;108775;1262;71605;-72
2023/04/09 10:02:19;;;;;;;9.00;3.10;;;;;;;22.77;28.07;100868.55;108926;1260;68001;-70
2023/04/09 10:05:10;;;;;;;8.10;2.50;;;;;;;22.76;28.13;100866.16;108947;1260;72431;-68
2023/04/09 10:08:00;;;;;;;8.10;2.50;;;;;;;22.93;28.02;100863.52;108935;1260;57471;-70
2023/04/09 10:10:51;;;;;;;10.10;3.30;;;;;;;22.88;27.80;100864.69;108861;1260;58914;-71
2023/04/09 10:14:05;;;;;;;8.90;4.10;;;;;;;22.78;28.11;100863.06;108974;1260;73033;-72
2023/04/09 10:16:53;;;;;;;8.20;2.60;;;;;;;22.55;26.90;100862.33;109040;1260;66910;-70
2023/04/09 10:19:48;;;;;;;7.50;2.20;;;;;;;22.74;26.74;100862.65;108863;1260;71090;-68
2023/04/09 10:22:36;;;;;;;8.50;2.50;;;;;;;22.76;26.71;100862.94;108931;1260;57391;-70
2023/04/09 10:25:25;;;;;;;7.30;2.40;;;;;;;22.32;26.36;100859.58;108912;1260;59325;-72
2023/04/09 10:28:17;;;;;;;6.90;2.60;;;;;;;22.04;27.15;100867.41;108972;1259;71505;-69
2023/04/09 10:31:06;;;;;;;7.00;2.30;;;;;;;21.75;27.70;100864.53;108915;1259;67911;-69
2023/04/09 10:34:03;;;;;;;9.10;2.50;;;;;;;21.35;27.67;100868.02;108901;1259;72445;-70
2023/04/09 10:36:55;;;;;;;7.50;2.70;;;;;;;20.93;27.69;100856.42;108877;1259;57687;-69
2023/04/09 10:39:47;;;;;;;7.50;2.10;;;;;;;20.98;27.96;100863.59;109005;1259;58741;-69
2023/04/09 10:42:39;;;;;;;8.20;3.10;;;;;;;20.66;27.89;100861.98;108944;1259;71926;-70
2023/04/09 10:45:40;;;;;;;7.30;2.90;;;;;;;20.69;28.22;100864.41;108886;1259;66990;-66
2023/04/09 10:48:32;;;;;;;7.80;2.50;;;;;;;20.74;27.55;100864.64;108836;1259;72924;-68
2023/04/09 10:51:25;;;;;;;7.50;2.40;;;;;;;20.34;27.60;100860.70;108964;1259;57677;-70
2023/04/09 10:54:32;;;;;;;8.40;2.40;;;;;;;20.12;28.12;100862.73;108861;1259;59092;-70
2023/04/09 10:57:20;;;;;;;6.90;2.40;;;;;;;20.46;28.32;100863.07;109037;1259;73063;-71
2023/04/09 11:00:09;;;;;;;8.30;2.40;;;;;;;21.30;28.08;100865.02;108943;1259;68859;-70
2023/04/09 11:03:27;;;;;;;7.60;2.30;;;;;;;22.07;27.48;100863.41;108914;1259;73082;-70
2023/04/09 11:06:19;;;;;;;7.60;2.60;;;;;;;22.72;26.26;100864.02;108870;1259;57519;-72
2023/04/09 11:09:07;;;;;;;8.20;2.20;;;;;;;23.03;25.58;100861.80;108906;1259;60160;-68
2023/04/09 11:11:56;;;;;;;6.70;2.40;;;;;;;23.06;25.31;100863.63;108865;1259;72899;-69
2023/04/09 11:14:45;;;;;;;7.40;2.30;;;;;;;22.71;25.71;100863.20;108954;1259;67745;-68
2023/04/09 11:17:37;;;;;;;7.50;2.10;;;;;;;22.26;26.08;100868.83;108931;1259;72336;-68
2023/04/09 11:20:27;;;;;;;6.40;2.30;;;;;;;21.76;26.90;100878.28;108922;1259;57864;-69
2023/04/09 11:23:16;;;;;;;8.60;2.40;;;;;;;21.58;26.76;100878.02;108971;1259;61265;-67
2023/04/09 11:26:04;;;;;;;8.30;3.00;;;;;;;21.50;27.32;100873.40;108951;1259;72926;-67
2023/04/09 11:28:56;;;;;;;6.80;2.30;;;;;;;21.64;27.36;100872.58;108875;1259;66334;-69
2023/04/09 11:31:45;;;;;;;6.20;2.20;;;;;;;22.05;26.71;100871.92;108883;1259;73161;-70
2023/04/09 11:34:33;;;;;;;6.70;2.20;;;;;;;22.18;26.46;100870.31;108947;1259;57299;-70
2023/04/09 11:37:21;;;;;;;6.80;2.30;;;;;;;22.68;26.09;100872.55;108994;1259;59133;-68
2023/04/09 11:40:21;;;;;;;7.30;2.50;;;;;;;22.72;25.71;100873.05;108870;1259;74141;-69
2023/04/09 11:43:09;;;;;;;8.10;2.30;;;;;;;22.73;25.69;100872.73;108879;1259;66616;-69
2023/04/09 11:45:58;;;;;;;6.50;2.00;;;;;;;22.84;25.57;100873.94;108809;1259;72589;-72
2023/04/09 11:48:46;;;;;;;6.50;2.20;;;;;;;22.52;26.01;100871.16;108921;1259;57755;-70
2023/04/09 11:51:34;;;;;;;8.80;2.40;;;;;;;21.66;26.65;100876.69;108938;1259;58026;-70
2023/04/09 11:54:22;;;;;;;6.90;2.20;;;;;;;20.76;27.97;100871.47;109065;1259;70658;-68
2023/04/09 11:57:09;;;;;;;8.10;2.30;;;;;;;20.32;29.17;100871.23;108940;1259;67620;-68
2023/04/09 11:59:57;;;;;;;8.20;2.30;;;;;;;20.12;29.52;100872.08;108867;1259;71480;-69
2023/04/09 12:02:48;;;;;;;7.80;2.40;;;;;;;20.06;29.51;100866.04;108797;1259;57867;-70
2023/04/09 12:05:36;;;;;;;7.70;2.40;;;;;;;20.09;29.91;100871.28;108826;1259;61089;-68
2023/04/09 12:08:27;;;;;;;7.50;2.40;;;;;;;20.11;29.84;100871.96;108841;1259;72991;-67
2023/04/09 12:11:15;;;;;;;6.90;2.60;;;;;;;19.84;30.10;100868.65;108881;1259;67874;-71
2023/04/09 12:14:06;;;;;;;7.00;2.30;;;;;;;19.52;30.82;100874.23;108879;1259;72684;-69
2023/04/09 12:16:54;;;;;;;9.00;2.70;;;;;;;19.08;31.78;100871.40;108891;1259;57879;-69
2023/04/09 12:19:42;;;;;;;7.70;2.30;;;;;;;18.70;32.48;100874.23;108889;1259;59110;-73
2023/04/09 12:22:30;;;;;;;9.20;2.40;;;;;;;18.29;33.29;100875.35;108936;1259;72850;-70
2023/04/09 12:25:19;;;;;;;9.00;2.80;;;;;;;17.92;34.21;100876.29;108859;1259;67848;-67
2023/04/09 12:28:10;;;;;;;8.70;2.80;;;;;;;17.55;34.89;100878.83;108906;1259;72712;-70
2023/04/09 12:30:58;;;;;;;7.80;2.60;;;;;;;17.21;35.54;100877.30;109016;1259;57296;-69
2023/04/09 12:33:46;;;;;;;8.40;2.60;;;;;;;17.02;35.89;100881.88;108952;1259;60354;-73
2023/04/09 12:36:34;;;;;;;8.90;2.40;;;;;;;16.76;35.03;100881.39;109022;1259;73188;-69
2023/04/09 12:39:23;;;;;;;7.40;2.30;;;;;;;16.54;35.33;100881.44;108909;1259;67642;-72
2023/04/09 12:42:10;;;;;;;7.70;2.40;;;;;;;16.40;35.81;100877.98;108891;1259;71471;-69
2023/04/09 12:44:58;;;;;;;7.00;2.40;;;;;;;16.28;36.35;100881.54;108945;1259;57990;-71
2023/04/09 12:47:48;;;;;;;6.80;2.10;;;;;;;16.30;36.44;100881.41;108833;1259;58713;-70
2023/04/09 12:50:37;;;;;;;6.10;1.80;;;;;;;16.21;35.69;100884.13;108899;1259;72850;-71
2023/04/09 12:53:25;;;;;;;6.00;2.00;;;;;;;16.19;36.25;100884.31;108973;1259;66520;-70
2023/04/09 12:56:13;;;;;;;7.60;2.00;;;;;;;16.19;36.32;100882.02;108999;1259;71840;-71
2023/04/09 12:59:01;;;;;;;7.40;2.20;;;;;;;16.15;36.38;100880.59;108872;1259;57365;-73
2023/04/09 13:01:49;;;;;;;7.80;2.30;;;;;;;16.16;36.76;100877.76;108986;1259;60077;-72
2023/04/09 13:04:40;;;;;;;7.40;2.50;;;;;;;16.13;36.89;100881.27;108981;1259;73095;-69